Flight Track Log - Related Links

Times and Time Zones

All times are in EDT time to prevent confusion due to time zone crossing. See the THY1998 flight status page for this flight to view local times or setup timezone preferences in your user account.

Time Position Orientation Groundspeed Altitude Reporting Facility
EDT Latitude Longitude Course Direction KTS MPH feet Rate Location/Type
Fri 11:02:00 AM 50.8251 1.5569 106° East  Level Estimated
Fri 11:03:00 AM 50.7914 1.7302 107° East  Level Estimated
Fri 11:04:00 AM 50.7574 1.9033 107° East  Level Estimated
Fri 11:05:00 AM 50.7232 2.0762 107° East  Level Estimated
Fri 11:06:00 AM 50.6887 2.2488 107° East  Level Estimated
Fri 11:07:00 AM 50.6539 2.4211 108° East  Level Estimated
Fri 11:08:00 AM 50.6189 2.5933 108° East  Level Estimated
Fri 11:09:00 AM 50.5837 2.7651 108° East  Level Estimated
Fri 11:10:00 AM 50.5482 2.9367 108° East  Level Estimated
Fri 11:11:00 AM 50.5124 3.1080 108° East  Level Estimated
Fri 11:12:00 AM 50.4764 3.2791 108° East  Level Estimated
Fri 11:13:00 AM 50.4402 3.4499 108° East  Level Estimated
Fri 11:14:00 AM 50.4036 3.6204 109° East  Level Estimated
Fri 11:15:00 AM 50.3669 3.7907 109° East  Level Estimated
Fri 11:16:00 AM 50.3299 3.9607 109° East  Level Estimated
Fri 11:17:00 AM 50.2926 4.1304 109° East  Level Estimated
Fri 11:18:00 AM 50.2551 4.2999 109° East  Level Estimated
Fri 11:19:00 AM 50.2174 4.4691 109° East  Level Estimated
Fri 11:20:00 AM 50.1794 4.6380 109° East  Level Estimated
Fri 11:21:00 AM 50.1412 4.8067 109° East  Level Estimated
Fri 11:22:00 AM 50.1027 4.9751 110° East  Level Estimated
Fri 11:23:00 AM 50.0640 5.1432 110° East  Level Estimated
Fri 11:24:00 AM 50.0250 5.3111 110° East  Level Estimated
Fri 11:25:00 AM 49.9858 5.4787 110° East  Level Estimated
Fri 11:26:00 AM 49.9464 5.6460 110° East  Level Estimated
Fri 11:27:00 AM 49.9067 5.8130 110° East  Level Estimated
Fri 11:28:00 AM 49.8667 5.9798 110° East  Level Estimated
Fri 11:29:00 AM 49.8266 6.1463 110° East  Level Estimated
Fri 11:30:00 AM 49.7862 6.3125 111° Southeast  Level Estimated
Fri 11:31:00 AM 49.7455 6.4784 111° Southeast  Level Estimated
Fri 11:32:00 AM 49.7047 6.6441 111° Southeast  Level Estimated
Fri 11:33:00 AM 49.6635 6.8095 111° Southeast  Level Estimated
Fri 11:34:00 AM 49.6222 6.9745 111° Southeast  Level Estimated
Fri 11:35:00 AM 49.5806 7.1393 111° Southeast  Level Estimated
Fri 11:36:00 AM 49.5388 7.3039 111° Southeast  Level Estimated
Fri 11:37:00 AM 49.4967 7.4681 111° Southeast  Level Estimated
Fri 11:38:00 AM 49.4545 7.6321 112° Southeast  Level Estimated
Fri 11:39:00 AM 49.4119 7.7958 112° Southeast  Level Estimated
Fri 11:40:00 AM 49.3692 7.9592 112° Southeast  Level Estimated
Fri 11:41:00 AM 49.3262 8.1223 112° Southeast  Level Estimated
Fri 11:42:00 AM 49.2830 8.2851 112° Southeast  Level Estimated
Fri 11:43:00 AM 49.2396 8.4477 112° Southeast  Level Estimated
Fri 11:44:00 AM 49.1959 8.6099 112° Southeast  Level Estimated
Fri 11:45:00 AM 49.1521 8.7719 112° Southeast  Level Estimated
Fri 11:46:00 AM 49.1080 8.9336 113° Southeast  Level Estimated
Fri 11:47:00 AM 49.0636 9.0950 113° Southeast  Level Estimated
Fri 11:48:00 AM 49.0191 9.2561 113° Southeast  Level Estimated
Fri 11:49:00 AM 48.9743 9.4169 113° Southeast  Level Estimated
Fri 11:50:00 AM 48.9293 9.5774 113° Southeast  Level Estimated
Fri 11:51:00 AM 48.8840 9.7377 113° Southeast  Level Estimated
Fri 11:52:00 AM 48.8386 9.8976 113° Southeast  Level Estimated
Fri 11:53:00 AM 48.7929 10.0573 113° Southeast  Level Estimated
Fri 11:54:00 AM 48.7470 10.2166 114° Southeast  Level Estimated
Fri 11:55:00 AM 48.7009 10.3757 114° Southeast  Level Estimated
Fri 11:56:00 AM 48.6546 10.5345 114° Southeast  Level Estimated
Fri 11:57:00 AM 48.6080 10.6930 114° Southeast  Level Estimated
Fri 11:58:00 AM 48.5613 10.8512 114° Southeast  Level Estimated
Fri 11:59:00 AM 48.5143 11.0091 114° Southeast  Level Estimated
Fri 12:00:00 PM 48.4671 11.1667 114° Southeast  Level Estimated
Fri 12:01:00 PM 48.4197 11.3240 114° Southeast  Level Estimated
Fri 12:02:00 PM 48.3721 11.4810 114° Southeast  Level Estimated
Fri 12:03:00 PM 48.3242 11.6378 115° Southeast  Level Estimated
Fri 12:04:00 PM 48.2762 11.7942 115° Southeast  Level Estimated
Fri 12:05:00 PM 48.2279 11.9503 115° Southeast  Level Estimated
Fri 12:06:00 PM 48.1794 12.1062 115° Southeast  Level Estimated
Fri 12:07:00 PM 48.1307 12.2617 115° Southeast  Level Estimated
Fri 12:08:00 PM 48.0819 12.4170 115° Southeast  Level Estimated
Fri 12:09:00 PM 48.0328 12.5720 115° Southeast  Level Estimated
Fri 12:10:00 PM 47.9835 12.7266 115° Southeast  Level Estimated
Fri 12:11:00 PM 47.9339 12.8810 116° Southeast  Level Estimated
Fri 12:12:00 PM 47.8842 13.0351 116° Southeast  Level Estimated
Fri 12:13:00 PM 47.8343 13.1888 116° Southeast  Level Estimated
Fri 12:14:00 PM 47.7841 13.3423 116° Southeast  Level Estimated
Fri 12:15:00 PM 47.7338 13.4955 116° Southeast  Level Estimated
Fri 12:16:00 PM 47.6833 13.6484 116° Southeast  Level Estimated
Fri 12:17:00 PM 47.6325 13.8010 116° Southeast  Level Estimated
Fri 12:18:00 PM 47.5816 13.9533 116° Southeast  Level Estimated
Fri 12:19:00 PM 47.5304 14.1053 116° Southeast  Level Estimated
Fri 12:20:00 PM 47.4791 14.2570 117° Southeast  Level Estimated
Fri 12:21:00 PM 47.4275 14.4084 117° Southeast  Level Estimated
Fri 12:22:00 PM 47.3758 14.5595 117° Southeast  Level Estimated
Fri 12:23:00 PM 47.3238 14.7103 117° Southeast  Level Estimated
Fri 12:24:00 PM 47.2717 14.8608 117° Southeast  Level Estimated
Fri 12:25:00 PM 47.2193 15.0110 117° Southeast  Level Estimated
Fri 12:26:00 PM 47.1668 15.1609 117° Southeast  Level Estimated
Fri 12:27:00 PM 47.1141 15.3106 117° Southeast  Level Estimated
Fri 12:28:00 PM 47.0611 15.4599 117° Southeast  Level Estimated
Fri 12:29:00 PM 47.0080 15.6089 118° Southeast  Level Estimated
Fri 12:30:00 PM 46.9547 15.7577 118° Southeast  Level Estimated
Fri 12:31:00 PM 46.9012 15.9061 118° Southeast  Level Estimated
Fri 12:32:00 PM 46.8475 16.0542 118° Southeast  Level Estimated
Fri 12:33:00 PM 46.7936 16.2021 118° Southeast  Level Estimated
Fri 12:34:00 PM 46.7395 16.3496 118° Southeast  Level Estimated
Fri 12:35:00 PM 46.6853 16.4969 118° Southeast  Level Estimated
Fri 12:36:00 PM 46.6308 16.6438 118° Southeast  Level Estimated
Fri 12:37:00 PM 46.5762 16.7905 118° Southeast  Level Estimated
Fri 12:38:00 PM 46.5213 16.9368 119° Southeast  Level Estimated
Fri 12:39:00 PM 46.4663 17.0829 119° Southeast  Level Estimated
Fri 12:40:00 PM 46.4111 17.2287 119° Southeast  Level Estimated
Fri 12:41:00 PM 46.3557 17.3742 119° Southeast  Level Estimated
Fri 12:42:00 PM 46.3002 17.5193 119° Southeast  Level Estimated
Fri 12:43:00 PM 46.2444 17.6642 119° Southeast  Level Estimated
Fri 12:44:00 PM 46.1885 17.8088 119° Southeast  Level Estimated
Fri 12:45:00 PM 46.1324 17.9531 119° Southeast  Level Estimated
Fri 12:46:00 PM 46.0760 18.0971 119° Southeast  Level Estimated
Fri 12:47:00 PM 46.0196 18.2408 119° Southeast  Level Estimated
Fri 12:48:00 PM 45.9629 18.3843 120° Southeast  Level Estimated
Fri 12:49:00 PM 45.9061 18.5274 120° Southeast  Level Estimated
Fri 12:50:00 PM 45.8490 18.6702 120° Southeast  Level Estimated
Fri 12:51:00 PM 45.7919 18.8127 120° Southeast  Level Estimated
Fri 12:52:00 PM 45.7345 18.9550 120° Southeast  Level Estimated
Fri 12:53:00 PM 45.6769 19.0969 120° Southeast  Level Estimated
Fri 12:54:00 PM 45.6192 19.2386 120° Southeast  Level Estimated
Fri 12:55:00 PM 45.5613 19.3800 120° Southeast  Level Estimated
Fri 12:56:00 PM 45.5033 19.5210 120° Southeast  Level Estimated
Fri 12:57:00 PM 45.4450 19.6618 120° Southeast  Level Estimated
Fri 12:58:00 PM 45.3866 19.8023 121° Southeast  Level Estimated
Fri 12:59:00 PM 45.3280 19.9425 121° Southeast  Level Estimated
Fri 01:00:00 PM 45.2692 20.0824 121° Southeast  Level Estimated
Fri 01:01:00 PM 45.2103 20.2220 121° Southeast  Level Estimated
Fri 01:02:00 PM 45.1512 20.3614 121° Southeast  Level Estimated
Fri 01:03:00 PM 45.0919 20.5004 121° Southeast  Level Estimated
Fri 01:04:00 PM 45.0325 20.6392 121° Southeast  Level Estimated
Fri 01:05:00 PM 44.9729 20.7776 121° Southeast  Level Estimated
Fri 01:06:00 PM 44.9131 20.9158 121° Southeast  Level Estimated
Fri 01:07:00 PM 44.8532 21.0537 121° Southeast  Level Estimated
Fri 01:08:00 PM 44.7931 21.1913 122° Southeast  Level Estimated
Fri 01:09:00 PM 44.7328 21.3286 122° Southeast  Level Estimated
Fri 01:10:00 PM 44.6724 21.4657 122° Southeast  Level Estimated
Fri 01:11:00 PM 44.6118 21.6024 122° Southeast  Level Estimated
Fri 01:12:00 PM 44.5510 21.7389 122° Southeast  Level Estimated
Fri 01:13:00 PM 44.4901 21.8750 122° Southeast  Level Estimated
Fri 01:14:00 PM 44.4290 22.0109 122° Southeast  Level Estimated
Fri 01:15:00 PM 44.3678 22.1465 122° Southeast  Level Estimated
Fri 01:16:00 PM 44.3064 22.2819 122° Southeast  Level Estimated
Fri 01:17:00 PM 44.2448 22.4169 122° Southeast  Level Estimated
Fri 01:18:00 PM 44.1831 22.5517 123° Southeast  Level Estimated
Fri 01:19:00 PM 44.1212 22.6861 123° Southeast  Level Estimated
Fri 01:20:00 PM 44.0592 22.8203 123° Southeast  Level Estimated
Fri 01:21:00 PM 43.9970 22.9542 123° Southeast  Level Estimated
Fri 01:22:00 PM 43.9346 23.0879 123° Southeast  Level Estimated
Fri 01:23:00 PM 43.8721 23.2212 123° Southeast  Level Estimated
Fri 01:24:00 PM 43.8094 23.3543 123° Southeast  Level Estimated
Fri 01:25:00 PM 43.7466 23.4871 123° Southeast  Level Estimated
Fri 01:26:00 PM 43.6837 23.6196 123° Southeast  Level Estimated
Fri 01:27:00 PM 43.6205 23.7518 123° Southeast  Level Estimated
Fri 01:28:00 PM 43.5573 23.8838 123° Southeast  Level Estimated
Fri 01:29:00 PM 43.4938 24.0155 124° Southeast  Level Estimated
Fri 01:30:00 PM 43.4303 24.1469 124° Southeast  Level Estimated
Fri 01:31:00 PM 43.3665 24.2780 124° Southeast  Level Estimated
Fri 01:32:00 PM 43.3027 24.4088 124° Southeast  Level Estimated
Fri 01:33:00 PM 43.2386 24.5394 124° Southeast  Level Estimated
Fri 01:34:00 PM 43.1745 24.6697 124° Southeast  Level Estimated
Fri 01:35:00 PM 43.1101 24.7997 124° Southeast  Level Estimated
Fri 01:36:00 PM 43.0457 24.9295 124° Southeast  Level Estimated
Fri 01:37:00 PM 42.9811 25.0590 124° Southeast  Level Estimated
Fri 01:38:00 PM 42.9163 25.1882 124° Southeast  Level Estimated
Fri 01:39:00 PM 42.8514 25.3171 124° Southeast  Level Estimated
Fri 01:40:00 PM 42.7864 25.4458 125° Southeast  Level Estimated
Fri 01:41:00 PM 42.7212 25.5742 125° Southeast  Level Estimated
Fri 01:42:00 PM 42.6558 25.7023 125° Southeast  Level Estimated
Fri 01:43:00 PM 42.5903 25.8302 125° Southeast  Level Estimated
Fri 01:44:00 PM 42.5247 25.9578 125° Southeast  Level Estimated
Fri 01:45:00 PM 42.4590 26.0851 125° Southeast  Level Estimated
Fri 01:46:00 PM 42.3931 26.2122 125° Southeast  Level Estimated
Fri 01:47:00 PM 42.3270 26.3389 125° Southeast  Level Estimated
Fri 01:48:00 PM 42.2608 26.4655 125° Southeast  Level Estimated
Fri 01:49:00 PM 42.1945 26.5917 125° Southeast  Level Estimated
Fri 01:50:00 PM 42.1281 26.7177 125° Southeast  Level Estimated
Fri 01:51:00 PM 42.0615 26.8435 125° Southeast  Level Estimated
Fri 01:52:00 PM 41.9947 26.9689 126° Southeast  Level Estimated
Fri 01:53:00 PM 41.9279 27.0941 126° Southeast  Level Estimated
Fri 01:54:00 PM 41.8609 27.2190 126° Southeast  Level Estimated
Fri 01:55:00 PM 41.7937 27.3437 126° Southeast  Level Estimated
Fri 01:56:00 PM 41.7265 27.4681 126° Southeast  Level Estimated
Fri 01:57:00 PM 41.6590 27.5923 126° Southeast  Level Estimated
Fri 01:58:00 PM 41.5915 27.7162 126° Southeast  Level Estimated
Fri 01:59:00 PM 41.5238 27.8398 126° Southeast  Level Estimated
Fri 02:00:00 PM 41.4560 27.9632 126° Southeast  Level Estimated
Fri 02:01:00 PM 41.3881 28.0863 126° Southeast  Level Estimated
Fri 02:02:00 PM 41.3200 28.2092 126° Southeast  Level Estimated
Fri 02:03:00 PM 41.2518 28.3318 126° Southeast  Level Estimated
Fri 02:04:00 PM 41.1835 28.4541 127° Southeast  Level Estimated
Fri 02:05:00 PM 41.1150 28.5762 127° Southeast  Level Estimated
Fri 02:06:00 PM 41.0465 28.6980 127° Southeast  Level Estimated
Fri 02:07:00 PM 40.9777 28.8196 127° Southeast  Level Estimated
Fri 02:08:00 PM 40.9769 28.8211 127° Southeast  Level Estimated
Fri 02:09:00 PM 40.9769 28.8211 21° North  Level Estimated
Fri 02:10:00 PM 40.9769 28.8211 21° North  Level Estimated
Fri 02:11:00 PM 40.9769 28.8211 21° North  Level Estimated
Fri 02:12:00 PM 40.9769 28.8211 21° North  Level Estimated
Fri 02:13:00 PM 40.9769 28.8211 21° North  Level Estimated
Fri 02:14:00 PM 40.9769 28.8211 21° North  Level Estimated
Fri 02:15:00 PM 40.9769 28.8211 21° North  Level Estimated
Fri 02:16:00 PM 40.9769 28.8211 21° North  Level Estimated
Fri 02:17:00 PM 40.9769 28.8211 21° North  Level Estimated
Fri 02:18:00 PM 40.9769 28.8211 21° North  Level Estimated
Fri 02:19:00 PM 40.9769 28.8211 21° North  Level Estimated
Fri 02:20:00 PM 40.9769 28.8211 21° North  Level Estimated
Fri 02:21:00 PM 40.9769 28.8211 21° North  Level Estimated
Fri 02:22:00 PM 40.9769 28.8211 21° North  Level Estimated
Fri 02:23:00 PM 40.9769 28.8211 21° North  Level Estimated

Login

Don't have an account? Register now (free) for customized features, flight alerts, and more!